createdAt,value
2017-09-30T00:01:21.678Z,15.70
2017-09-30T00:03:49.133Z,15.70
2017-09-30T00:06:16.582Z,15.70
2017-09-30T00:08:44.223Z,15.70
2017-09-30T00:11:12.082Z,15.70
2017-09-30T00:13:39.538Z,15.70
2017-09-30T00:16:07.430Z,15.70
2017-09-30T00:18:34.893Z,15.70
2017-09-30T00:21:02.350Z,15.70
2017-09-30T00:23:29.830Z,15.70
2017-09-30T00:25:57.294Z,15.60
2017-09-30T00:28:24.752Z,15.60
2017-09-30T00:30:52.230Z,15.60
2017-09-30T00:33:19.686Z,15.60
2017-09-30T00:35:47.151Z,15.60
2017-09-30T00:38:14.602Z,15.60
2017-09-30T00:40:42.458Z,15.60
2017-09-30T00:43:09.942Z,15.60
2017-09-30T00:45:37.406Z,15.50
2017-09-30T00:48:04.869Z,15.50
2017-09-30T00:50:32.355Z,15.50
2017-09-30T00:52:59.814Z,15.40
2017-09-30T00:55:27.273Z,15.50
2017-09-30T00:57:54.755Z,15.50
2017-09-30T01:00:23.180Z,15.40
2017-09-30T01:02:50.649Z,15.40
2017-09-30T01:05:18.120Z,15.40
2017-09-30T01:07:45.735Z,15.40
2017-09-30T01:10:13.198Z,15.40
2017-09-30T01:12:40.756Z,15.40
2017-09-30T01:15:08.227Z,15.40
2017-09-30T01:17:35.678Z,15.40
2017-09-30T01:20:03.476Z,15.40
2017-09-30T01:22:30.934Z,15.40
2017-09-30T01:24:58.394Z,15.30
2017-09-30T01:27:25.868Z,15.30
2017-09-30T01:29:53.335Z,15.30
2017-09-30T01:32:20.799Z,15.30
2017-09-30T01:34:48.296Z,15.30
2017-09-30T01:37:15.763Z,15.20
2017-09-30T01:39:43.228Z,15.20
2017-09-30T01:42:10.699Z,15.20
2017-09-30T01:44:38.559Z,15.10
2017-09-30T01:47:06.427Z,15.10
2017-09-30T01:49:34.324Z,15.10
2017-09-30T01:52:01.787Z,15.10
2017-09-30T01:54:29.257Z,15.10
2017-09-30T01:56:56.727Z,15.10
2017-09-30T01:59:24.185Z,15.10
2017-09-30T02:01:51.642Z,15.10
2017-09-30T02:04:19.394Z,15.10
2017-09-30T02:06:46.860Z,15.00
2017-09-30T02:09:14.309Z,15.00
2017-09-30T02:11:41.895Z,15.00
2017-09-30T02:14:09.754Z,14.90
2017-09-30T02:16:37.211Z,14.90
2017-09-30T02:19:05.072Z,14.80
2017-09-30T02:21:32.527Z,14.80
2017-09-30T02:24:00.015Z,14.80
2017-09-30T02:26:27.480Z,14.70
2017-09-30T02:28:54.938Z,14.80
2017-09-30T02:31:22.738Z,14.80
2017-09-30T02:33:50.207Z,14.90
2017-09-30T02:36:17.667Z,14.90
2017-09-30T02:38:45.337Z,14.90
2017-09-30T02:41:13.189Z,14.90
2017-09-30T02:43:40.650Z,14.90
2017-09-30T02:46:08.523Z,14.80
2017-09-30T02:48:36.383Z,14.90
2017-09-30T02:51:04.236Z,14.80
2017-09-30T02:53:32.220Z,14.80
2017-09-30T02:55:59.712Z,14.80
2017-09-30T02:58:27.169Z,14.80
2017-09-30T03:00:54.655Z,14.80
2017-09-30T03:03:22.114Z,14.70
2017-09-30T03:05:49.570Z,14.70
2017-09-30T03:08:17.054Z,14.70
2017-09-30T03:10:44.915Z,14.70
2017-09-30T03:13:12.778Z,14.60
2017-09-30T03:15:40.652Z,14.60
2017-09-30T03:18:08.503Z,14.70
2017-09-30T03:20:36.358Z,14.70
2017-09-30T03:23:03.854Z,14.70
2017-09-30T03:25:31.321Z,14.70
2017-09-30T03:27:58.779Z,14.70
2017-09-30T03:30:26.275Z,14.60
2017-09-30T03:32:53.742Z,14.70
2017-09-30T03:35:21.195Z,14.80
2017-09-30T03:37:48.942Z,14.80
2017-09-30T03:40:16.407Z,14.80
2017-09-30T03:42:43.862Z,14.70
2017-09-30T03:45:11.342Z,14.70
2017-09-30T03:47:38.810Z,14.60
2017-09-30T03:50:06.284Z,14.80
2017-09-30T03:52:33.779Z,14.70
2017-09-30T03:55:01.244Z,14.70
2017-09-30T03:57:28.698Z,14.70
2017-09-30T03:59:56.158Z,14.60
2017-09-30T04:02:24.019Z,14.50
2017-09-30T04:04:51.501Z,14.50
2017-09-30T04:07:18.969Z,14.50
2017-09-30T04:09:46.438Z,14.40
2017-09-30T04:12:13.893Z,14.50
2017-09-30T04:14:41.687Z,14.40
2017-09-30T04:17:09.146Z,14.30
2017-09-30T04:19:36.612Z,14.30
2017-09-30T04:22:04.579Z,14.30
2017-09-30T04:24:32.047Z,14.40
2017-09-30T04:26:59.902Z,14.30
2017-09-30T04:29:27.365Z,14.30
2017-09-30T04:31:55.222Z,14.20
2017-09-30T04:34:23.091Z,14.30
2017-09-30T04:36:50.954Z,14.20
2017-09-30T04:39:18.806Z,14.20
2017-09-30T04:41:46.466Z,14.20
2017-09-30T04:44:13.930Z,14.10
2017-09-30T04:46:41.438Z,14.20
2017-09-30T04:49:08.938Z,14.00
2017-09-30T04:51:36.394Z,14.10
2017-09-30T04:54:03.854Z,14.20
2017-09-30T04:56:31.731Z,14.10
2017-09-30T04:58:59.590Z,14.10
2017-09-30T05:01:27.448Z,14.00
2017-09-30T05:03:55.195Z,14.00
2017-09-30T05:06:22.651Z,14.00
2017-09-30T05:08:50.119Z,14.00
2017-09-30T05:11:17.599Z,14.00
2017-09-30T05:13:45.056Z,14.00
2017-09-30T05:16:12.506Z,14.00
2017-09-30T05:18:40.747Z,13.90
2017-09-30T05:21:08.202Z,13.90
2017-09-30T05:23:35.663Z,13.90
2017-09-30T05:26:03.135Z,13.80
2017-09-30T05:28:30.996Z,13.80
2017-09-30T05:30:58.879Z,13.80
2017-09-30T05:33:26.342Z,13.80
2017-09-30T05:35:53.806Z,13.80
2017-09-30T05:38:21.270Z,13.80
2017-09-30T05:40:48.736Z,13.80
2017-09-30T05:43:16.192Z,13.80
2017-09-30T05:45:43.680Z,13.90
2017-09-30T05:48:11.151Z,13.80
2017-09-30T05:50:39.006Z,13.80
2017-09-30T05:53:07.147Z,13.90
2017-09-30T05:55:34.607Z,13.90
2017-09-30T05:58:02.062Z,13.90
2017-09-30T06:00:29.551Z,13.80
2017-09-30T06:02:57.406Z,13.90
2017-09-30T06:05:25.268Z,13.90
2017-09-30T06:07:52.751Z,13.90
2017-09-30T06:10:20.211Z,13.80
2017-09-30T06:12:47.674Z,13.80
2017-09-30T06:15:15.351Z,13.90
2017-09-30T06:17:42.807Z,13.90
2017-09-30T06:20:10.261Z,13.90
2017-09-30T06:22:37.736Z,13.80
2017-09-30T06:25:05.203Z,13.80
2017-09-30T06:27:32.667Z,13.70
2017-09-30T06:30:00.425Z,13.80
2017-09-30T06:32:28.873Z,13.80
2017-09-30T06:34:56.375Z,13.80
2017-09-30T06:37:24.520Z,13.70
2017-09-30T06:39:51.990Z,13.70
2017-09-30T06:42:19.447Z,13.60
2017-09-30T06:44:46.914Z,13.70
2017-09-30T06:47:14.771Z,13.70
2017-09-30T06:49:42.259Z,13.70
2017-09-30T06:52:09.721Z,13.60
2017-09-30T06:54:37.172Z,13.70
2017-09-30T06:57:04.890Z,13.70
2017-09-30T06:59:32.347Z,13.70
2017-09-30T07:02:00.235Z,13.70
2017-09-30T07:04:28.238Z,13.60
2017-09-30T07:06:55.699Z,13.60
2017-09-30T07:09:23.156Z,13.70
2017-09-30T07:11:50.633Z,13.60
2017-09-30T07:14:18.103Z,13.70
2017-09-30T07:16:45.551Z,13.70
2017-09-30T07:19:13.034Z,13.60
2017-09-30T07:21:40.508Z,13.60
2017-09-30T07:24:07.958Z,13.60
2017-09-30T07:26:35.438Z,13.60
2017-09-30T07:29:02.923Z,13.60
2017-09-30T07:31:30.411Z,13.60
2017-09-30T07:33:58.305Z,13.70
2017-09-30T07:36:25.766Z,13.70
2017-09-30T07:38:53.218Z,13.80
2017-09-30T07:41:20.695Z,13.60
2017-09-30T07:43:48.159Z,13.60
2017-09-30T07:46:15.832Z,13.60
2017-09-30T07:48:43.290Z,13.60
2017-09-30T07:51:10.755Z,13.60
2017-09-30T07:53:38.646Z,13.60
2017-09-30T07:56:06.243Z,13.60
2017-09-30T07:58:33.711Z,13.50
2017-09-30T08:01:01.197Z,13.60
2017-09-30T08:03:29.060Z,13.90
2017-09-30T08:05:56.915Z,13.80
2017-09-30T08:08:24.416Z,13.80
2017-09-30T08:10:51.870Z,13.80
2017-09-30T08:13:19.331Z,13.90
2017-09-30T08:15:46.790Z,14.10
2017-09-30T08:18:14.251Z,14.20
2017-09-30T08:20:42.019Z,14.20
2017-09-30T08:23:09.479Z,14.30
2017-09-30T08:25:36.939Z,14.20
2017-09-30T08:28:04.715Z,14.30
2017-09-30T08:30:32.183Z,14.50
2017-09-30T08:32:59.664Z,14.70
2017-09-30T08:35:28.106Z,15.30
2017-09-30T08:37:55.599Z,15.30
2017-09-30T08:40:23.061Z,15.40
2017-09-30T08:42:50.778Z,15.50
2017-09-30T08:45:18.247Z,15.30
2017-09-30T08:47:46.112Z,15.40
2017-09-30T08:50:13.609Z,15.40
2017-09-30T08:52:41.100Z,15.30
2017-09-30T08:55:08.558Z,15.30
2017-09-30T08:57:36.028Z,15.20
2017-09-30T09:00:03.897Z,15.30
2017-09-30T09:02:31.402Z,15.20
2017-09-30T09:04:58.861Z,15.30
2017-09-30T09:07:26.326Z,15.20
2017-09-30T09:09:54.115Z,15.10
2017-09-30T09:12:21.578Z,15.10
2017-09-30T09:14:49.042Z,15.20
2017-09-30T09:17:16.961Z,15.10
2017-09-30T09:19:44.438Z,15.10
2017-09-30T09:22:11.933Z,15.10
2017-09-30T09:24:39.511Z,15.10
2017-09-30T09:27:06.971Z,15.20
2017-09-30T09:29:34.435Z,15.30
2017-09-30T09:32:02.225Z,15.40
2017-09-30T09:34:29.678Z,15.50
2017-09-30T09:36:57.371Z,15.40
2017-09-30T09:39:24.938Z,15.30
2017-09-30T09:41:52.801Z,15.40
2017-09-30T09:44:20.655Z,15.30
2017-09-30T09:46:48.533Z,15.30
2017-09-30T09:49:16.374Z,15.30
2017-09-30T09:51:43.835Z,15.30
2017-09-30T09:54:11.826Z,15.40
2017-09-30T09:56:39.288Z,15.40
2017-09-30T09:59:06.742Z,15.50
2017-09-30T10:01:34.319Z,15.50
2017-09-30T10:04:01.782Z,15.50
2017-09-30T10:06:29.243Z,15.60
2017-09-30T10:08:56.760Z,15.60
2017-09-30T10:11:24.219Z,15.60
2017-09-30T10:13:51.689Z,15.70
2017-09-30T10:16:19.176Z,15.80
2017-09-30T10:18:46.638Z,15.80
2017-09-30T10:21:14.098Z,15.90
2017-09-30T10:23:41.573Z,16.10
2017-09-30T10:26:09.432Z,16.00
2017-09-30T10:28:37.290Z,16.00
2017-09-30T10:31:04.803Z,16.00
2017-09-30T10:33:32.266Z,16.00
2017-09-30T10:36:00.036Z,15.90
2017-09-30T10:38:27.523Z,15.90
2017-09-30T10:40:54.985Z,15.70
2017-09-30T10:43:22.478Z,15.70
2017-09-30T10:45:49.946Z,15.70
2017-09-30T10:48:17.448Z,15.80
2017-09-30T10:50:44.907Z,15.80
2017-09-30T10:53:12.362Z,15.90
2017-09-30T10:55:40.254Z,15.70
2017-09-30T10:58:07.710Z,15.70
2017-09-30T11:00:35.184Z,15.90
2017-09-30T11:03:02.770Z,15.90
2017-09-30T11:05:30.241Z,16.00
2017-09-30T11:07:57.707Z,16.00
2017-09-30T11:10:25.591Z,16.20
2017-09-30T11:12:53.050Z,16.20
2017-09-30T11:15:21.101Z,16.20
2017-09-30T11:17:49.134Z,16.10
2017-09-30T11:20:16.593Z,16.10
2017-09-30T11:22:44.054Z,16.10
2017-09-30T11:25:11.723Z,16.10
2017-09-30T11:27:39.222Z,16.10
2017-09-30T11:30:06.688Z,16.10
2017-09-30T11:32:34.170Z,16.10
2017-09-30T11:35:01.643Z,16.10
2017-09-30T11:37:29.107Z,16.10
2017-09-30T11:39:56.582Z,16.10
2017-09-30T11:42:24.435Z,16.10
2017-09-30T11:44:52.290Z,16.10
2017-09-30T11:47:20.056Z,16.10
2017-09-30T11:49:47.510Z,16.20
2017-09-30T11:52:14.967Z,16.30
2017-09-30T11:54:42.438Z,16.30
2017-09-30T11:57:10.287Z,16.50
2017-09-30T11:59:38.035Z,16.50
2017-09-30T12:02:05.500Z,16.50
2017-09-30T12:04:32.982Z,16.60
2017-09-30T12:07:00.850Z,16.60
2017-09-30T12:09:28.308Z,16.60
2017-09-30T12:11:55.774Z,16.60
2017-09-30T12:14:23.482Z,16.60
2017-09-30T12:16:50.943Z,16.60
2017-09-30T12:19:18.406Z,16.50
2017-09-30T12:21:46.154Z,16.40
2017-09-30T12:24:13.611Z,16.40
2017-09-30T12:26:41.085Z,16.30
2017-09-30T12:29:08.550Z,16.40
2017-09-30T12:31:36.418Z,16.40
2017-09-30T12:34:04.170Z,16.40
2017-09-30T12:36:32.030Z,16.40
2017-09-30T12:38:59.546Z,16.40
2017-09-30T12:41:27.185Z,16.40
2017-09-30T12:43:54.647Z,16.40
2017-09-30T12:46:22.117Z,16.40
2017-09-30T12:48:49.582Z,16.50
2017-09-30T12:51:17.043Z,16.50
2017-09-30T12:53:44.518Z,16.50
2017-09-30T12:56:12.006Z,16.70
2017-09-30T12:58:39.466Z,16.80
2017-09-30T13:01:06.925Z,16.80
2017-09-30T13:03:34.574Z,16.70
2017-09-30T13:06:02.050Z,16.70
2017-09-30T13:08:29.515Z,16.70
2017-09-30T13:10:57.303Z,16.70
2017-09-30T13:13:24.755Z,16.70
2017-09-30T13:15:52.214Z,16.60
2017-09-30T13:18:19.982Z,16.70
2017-09-30T13:20:47.438Z,16.60
2017-09-30T13:23:14.907Z,16.60
2017-09-30T13:25:42.786Z,16.60
2017-09-30T13:28:10.635Z,16.60
2017-09-30T13:30:38.491Z,16.60
2017-09-30T13:33:06.275Z,16.60
2017-09-30T13:35:34.142Z,16.50
2017-09-30T13:38:01.606Z,16.60
2017-09-30T13:40:29.063Z,16.60
2017-09-30T13:42:56.545Z,16.70
2017-09-30T13:45:24.013Z,16.60
2017-09-30T13:47:51.487Z,16.60
2017-09-30T13:50:19.362Z,16.60
2017-09-30T13:52:47.222Z,16.60
2017-09-30T13:55:14.679Z,16.60
2017-09-30T13:57:42.365Z,16.60
2017-09-30T14:00:10.216Z,16.50
2017-09-30T14:05:11.947Z,16.50
2017-09-30T14:07:39.437Z,16.50
2017-09-30T14:10:07.299Z,16.50
2017-09-30T14:12:35.170Z,16.50
2017-09-30T14:15:03.056Z,16.50
2017-09-30T14:17:30.514Z,16.50
2017-09-30T14:19:58.015Z,16.50
2017-09-30T14:22:25.502Z,16.50
2017-09-30T14:24:53.359Z,16.50
2017-09-30T14:27:20.820Z,16.50
2017-09-30T14:29:48.982Z,16.60
2017-09-30T14:32:16.435Z,16.60
2017-09-30T14:34:43.898Z,16.60
2017-09-30T14:37:11.782Z,16.60
2017-09-30T14:39:39.630Z,16.60
2017-09-30T14:42:07.482Z,16.60
2017-09-30T14:44:34.950Z,16.60
2017-09-30T14:47:02.808Z,16.50
2017-09-30T14:49:30.676Z,16.50
2017-09-30T14:51:58.330Z,16.50
2017-09-30T14:54:26.190Z,16.50
2017-09-30T14:56:53.659Z,16.50
2017-09-30T14:59:21.538Z,16.50
2017-09-30T15:01:49.007Z,16.50
2017-09-30T15:04:16.722Z,16.50
2017-09-30T15:06:44.179Z,16.50
2017-09-30T15:09:11.651Z,16.40
2017-09-30T15:11:39.703Z,16.40
2017-09-30T15:14:07.169Z,16.40
2017-09-30T15:16:34.623Z,16.40
2017-09-30T15:19:02.094Z,16.40
2017-09-30T15:21:29.956Z,16.40
2017-09-30T15:23:57.815Z,16.40
2017-09-30T15:26:25.971Z,16.40
2017-09-30T15:28:53.426Z,16.40
2017-09-30T15:31:20.935Z,16.40
2017-09-30T15:33:48.746Z,16.40
2017-09-30T15:36:16.204Z,16.40
2017-09-30T15:38:43.658Z,16.40
2017-09-30T15:41:11.139Z,16.40
2017-09-30T15:43:38.998Z,16.40
2017-09-30T15:46:06.851Z,16.40
2017-09-30T15:48:34.348Z,16.40
2017-09-30T15:51:01.820Z,16.40
2017-09-30T15:53:29.274Z,16.40
2017-09-30T15:55:56.762Z,16.40
2017-09-30T15:58:24.234Z,16.40
2017-09-30T16:00:52.094Z,16.50
2017-09-30T16:03:19.548Z,16.50
2017-09-30T16:05:47.006Z,16.50
2017-09-30T16:08:14.754Z,16.50
2017-09-30T16:10:42.210Z,16.60
2017-09-30T16:13:09.680Z,16.50
2017-09-30T16:15:37.835Z,16.50
2017-09-30T16:18:05.298Z,16.50
2017-09-30T16:20:33.578Z,16.50
2017-09-30T16:23:01.443Z,16.50
2017-09-30T16:25:28.892Z,16.50
2017-09-30T16:27:56.378Z,16.50
2017-09-30T16:30:23.846Z,16.50
2017-09-30T16:32:51.319Z,16.50
2017-09-30T16:35:18.797Z,16.40
2017-09-30T16:37:46.264Z,16.30
2017-09-30T16:40:13.726Z,16.30
2017-09-30T16:42:41.207Z,16.30
2017-09-30T16:45:08.731Z,16.30
2017-09-30T16:47:36.186Z,16.30
2017-09-30T16:50:03.950Z,16.30
2017-09-30T16:52:31.415Z,16.30
2017-09-30T16:54:58.869Z,16.30
2017-09-30T16:57:26.442Z,16.30
2017-09-30T16:59:54.294Z,16.40
2017-09-30T17:02:22.158Z,16.40
2017-09-30T17:04:50.064Z,16.40
2017-09-30T17:07:17.519Z,16.40
2017-09-30T17:09:44.982Z,16.40
2017-09-30T17:12:12.503Z,16.40
2017-09-30T17:14:40.366Z,16.40
2017-09-30T17:17:08.226Z,16.40
2017-09-30T17:19:36.114Z,16.40
2017-09-30T17:22:03.583Z,16.40
2017-09-30T17:24:31.036Z,16.40
2017-09-30T17:26:58.527Z,16.50
2017-09-30T17:29:25.982Z,16.50
2017-09-30T17:31:53.451Z,16.50
2017-09-30T17:34:21.210Z,16.50
2017-09-30T17:36:48.671Z,16.50
2017-09-30T17:39:16.133Z,16.50
2017-09-30T17:41:43.618Z,16.50
2017-09-30T17:44:11.103Z,16.50
2017-09-30T17:46:38.559Z,16.60
2017-09-30T17:49:06.032Z,16.60
2017-09-30T17:51:33.498Z,16.60
2017-09-30T17:54:01.410Z,16.60
2017-09-30T17:56:28.886Z,16.60
2017-09-30T17:58:56.644Z,16.60
2017-09-30T18:01:24.099Z,16.60
2017-09-30T18:03:51.553Z,16.60
2017-09-30T18:06:19.069Z,16.60
2017-09-30T18:08:46.924Z,16.60
2017-09-30T18:11:14.418Z,16.60
2017-09-30T18:13:41.879Z,16.60
2017-09-30T18:16:10.163Z,16.60
2017-09-30T18:18:37.659Z,16.60
2017-09-30T18:21:05.111Z,16.60
2017-09-30T18:23:32.620Z,16.60
2017-09-30T18:26:00.435Z,16.60
2017-09-30T18:28:27.889Z,16.60
2017-09-30T18:30:55.343Z,16.60
2017-09-30T18:33:22.806Z,16.60
2017-09-30T18:35:50.790Z,16.60
2017-09-30T18:38:18.648Z,16.60
2017-09-30T18:40:46.904Z,16.50
2017-09-30T18:43:14.543Z,16.60
2017-09-30T18:45:42.131Z,16.60
2017-09-30T18:48:09.673Z,16.60
2017-09-30T18:50:37.574Z,16.60
2017-09-30T18:53:05.058Z,16.60
2017-09-30T18:55:32.576Z,16.60
2017-09-30T18:58:00.065Z,16.60
2017-09-30T19:00:27.528Z,16.60
2017-09-30T19:02:55.008Z,16.60
2017-09-30T19:05:22.471Z,16.60
2017-09-30T19:07:49.941Z,16.60
2017-09-30T19:10:17.817Z,16.60
2017-09-30T19:12:45.710Z,16.50
2017-09-30T19:15:13.558Z,16.50
2017-09-30T19:17:41.428Z,16.30
2017-09-30T19:20:08.914Z,16.30
2017-09-30T19:22:36.434Z,16.20
2017-09-30T19:25:04.287Z,15.80
2017-09-30T19:27:32.151Z,15.70
2017-09-30T19:30:00.021Z,15.70
2017-09-30T19:32:27.880Z,15.60
2017-09-30T19:34:55.747Z,15.60
2017-09-30T19:37:23.895Z,15.60
2017-09-30T19:39:51.360Z,15.60
2017-09-30T19:42:18.825Z,15.50
2017-09-30T19:44:46.699Z,15.50
2017-09-30T19:47:14.182Z,15.50
2017-09-30T19:49:41.636Z,15.40
2017-09-30T19:52:09.115Z,15.30
2017-09-30T19:54:36.579Z,15.30
2017-09-30T19:57:04.064Z,15.30
2017-09-30T19:59:31.932Z,15.30
2017-09-30T20:01:59.781Z,15.30
2017-09-30T20:04:27.270Z,15.30
2017-09-30T20:06:54.750Z,15.30
2017-09-30T20:09:22.219Z,15.30
2017-09-30T20:11:49.814Z,15.30
2017-09-30T20:14:17.279Z,15.30
2017-09-30T20:16:45.131Z,15.40
2017-09-30T20:19:12.608Z,15.40
2017-09-30T20:21:40.462Z,15.30
2017-09-30T20:24:08.327Z,15.30
2017-09-30T20:26:36.383Z,15.30
2017-09-30T20:29:04.266Z,15.30
2017-09-30T20:31:32.124Z,15.20
2017-09-30T20:34:00.015Z,15.10
2017-09-30T20:36:27.487Z,15.10
2017-09-30T20:38:54.967Z,14.90
2017-09-30T20:41:22.609Z,14.70
2017-09-30T20:43:50.087Z,14.40
2017-09-30T20:46:17.559Z,14.30
2017-09-30T20:48:45.027Z,14.30
2017-09-30T20:51:12.928Z,14.30
2017-09-30T20:53:40.390Z,14.20
2017-09-30T20:56:07.855Z,14.30
2017-09-30T20:58:35.326Z,14.20
2017-09-30T21:01:03.007Z,14.10
2017-09-30T21:03:30.467Z,14.20
2017-09-30T21:05:58.637Z,14.10
2017-09-30T21:08:26.223Z,14.10
2017-09-30T21:10:53.699Z,13.90
2017-09-30T21:13:21.261Z,13.90
2017-09-30T21:15:48.923Z,13.90
2017-09-30T21:18:16.379Z,13.80
2017-09-30T21:20:43.837Z,13.70
2017-09-30T21:23:11.311Z,13.60
2017-09-30T21:25:38.762Z,13.80
2017-09-30T21:28:06.214Z,13.90
2017-09-30T21:30:33.709Z,13.80
2017-09-30T21:33:01.567Z,13.70
2017-09-30T21:35:29.432Z,13.60
2017-09-30T21:37:57.311Z,13.70
2017-09-30T21:40:25.156Z,13.70
2017-09-30T21:42:52.610Z,13.70
2017-09-30T21:45:20.640Z,13.80
2017-09-30T21:47:48.091Z,13.80
2017-09-30T21:50:15.550Z,13.70
2017-09-30T21:52:43.050Z,13.60
2017-09-30T21:55:10.523Z,13.60
2017-09-30T21:57:38.375Z,13.50
2017-09-30T22:00:06.255Z,13.60
2017-09-30T22:02:34.106Z,13.40
2017-09-30T22:05:01.951Z,13.50
2017-09-30T22:07:29.442Z,13.50
2017-09-30T22:09:56.904Z,13.60
2017-09-30T22:12:24.359Z,13.60
2017-09-30T22:14:52.248Z,13.60
2017-09-30T22:17:19.703Z,13.60
2017-09-30T22:19:47.154Z,13.60
2017-09-30T22:22:14.649Z,13.60
2017-09-30T22:24:42.099Z,13.60
2017-09-30T22:27:09.570Z,13.50
2017-09-30T22:29:37.487Z,13.70
2017-09-30T22:32:04.938Z,13.70
2017-09-30T22:34:32.394Z,13.60
2017-09-30T22:36:59.879Z,13.60
2017-09-30T22:39:27.327Z,13.70
2017-09-30T22:41:54.787Z,13.60
2017-09-30T22:44:22.455Z,13.60
2017-09-30T22:46:49.917Z,13.70
2017-09-30T22:49:17.373Z,13.60
2017-09-30T22:51:44.854Z,13.50
2017-09-30T22:54:12.317Z,13.50
2017-09-30T22:56:39.779Z,13.30
2017-09-30T22:59:07.250Z,13.30
2017-09-30T23:01:34.707Z,13.30
2017-09-30T23:04:02.388Z,13.30
2017-09-30T23:06:29.847Z,13.40
2017-09-30T23:08:57.319Z,13.30
2017-09-30T23:11:24.915Z,13.30
2017-09-30T23:13:52.370Z,13.30
2017-09-30T23:16:19.835Z,13.20
2017-09-30T23:18:47.298Z,13.20
2017-09-30T23:21:14.754Z,13.20
2017-09-30T23:23:42.210Z,13.20
2017-09-30T23:26:10.318Z,13.30
2017-09-30T23:28:37.783Z,13.20
2017-09-30T23:31:05.238Z,13.20
2017-09-30T23:36:23.424Z,13.20
2017-09-30T23:38:50.893Z,13.20
2017-09-30T23:56:35.906Z,13.10
2017-09-30T23:59:03.359Z,13.10
